Wawanesa, Canada
Current Conditions -  °F | °C
As of 10:00 AM on Thursday 23 Oct 2014 (Local Time) from CYBR Reporting Station
Few Clouds Few Clouds  
Wind Chill: 36°   Ceiling: Unl
Heat Index: 43°   Visibility: 15mi
Dew Point: 39°   Wind: 14mph
Humidity: 87%   Direction: 250°WSW
Pressure: 29.79"   Gusts: NA
Location:  49.52°N, 99.68°W
Report Text: CYBR 231500Z 25012KT 15SM FEW100 FEW240 06/04 A2979 RMK ACC1CI1 ACC TR SLP101
Loading
Personal Weather Stations






























Interactive Weather Map
Tropical Storm Tracking
New forecast layout! Learn more

10-Day Weather Forecast

Advertisements
Track Severe Weather on mobile